CST,Max TemperatureF,Mean TemperatureF,Min TemperatureF,Max Dew PointF,MeanDew PointF,Min DewpointF,Max Humidity, Mean Humidity, Min Humidity, Max Sea Level PressureIn, Mean Sea Level PressureIn, Min Sea Level PressureIn, Max VisibilityMiles, Mean VisibilityMiles, Min VisibilityMiles, Max Wind SpeedMPH, Mean Wind SpeedMPH, Max Gust SpeedMPH,PrecipitationIn, CloudCover, Events, WindDirDegrees
2013-1-1,34,26,17,34,22,11,100,84,74,30.25,30.17,30.09,10,7,2,12,6,,0.01,7,Rain-Snow,311
2013-1-2,25,15,5,13,8,3,87,72,44,30.31,30.27,30.23,10,10,7,6,3,,0.00,0,,214
2013-1-3,34,20,7,26,17,4,86,76,66,30.39,30.32,30.24,10,10,7,10,3,,0.00,3,,233
2013-1-4,33,24,16,26,21,15,96,78,64,30.45,30.39,30.36,10,9,2,16,7,23,0.00,1,,206
2013-1-5,38,27,16,32,26,15,97,83,66,30.36,30.27,30.14,10,8,3,14,4,18,0.00,4,,167
2013-1-6,38,28,18,32,26,16,95,79,66,30.42,30.23,30.06,10,9,4,18,10,31,0.00,5,,250
2013-1-7,36,25,14,27,21,12,96,84,65,30.49,30.37,30.23,10,8,3,15,3,18,0.00,0,,152
2013-1-8,42,30,19,33,27,19,96,83,63,30.29,30.23,30.19,10,7,2,12,3,,0.00,2,,135
2013-1-9,55,44,32,44,37,32,99,81,49,30.52,30.39,30.21,10,9,4,18,7,25,0.14,2,Rain,232
2013-1-10,56,44,32,56,41,32,99,92,69,30.51,30.22,29.89,10,6,1,15,5,20,1.16,6,Rain,87
2013-1-11,61,56,52,59,52,47,97,83,68,29.95,29.89,29.83,10,10,4,20,12,24,0.50,3,Rain-Thunderstorm,171
2013-1-12,65,53,41,58,53,39,97,88,62,29.99,29.89,29.71,10,8,2,23,8,32,1.80,4,Rain-Thunderstorm,189
2013-1-13,40,31,22,39,30,16,97,91,76,30.35,30.06,29.80,10,6,1,17,11,23,0.54,7,Rain-Snow,305
2013-1-14,26,22,19,22,18,14,86,80,75,30.49,30.43,30.34,10,10,10,10,6,,0.00,2,,336
2013-1-15,32,26,20,26,22,18,92,81,71,30.41,30.30,30.13,10,9,7,13,7,,0.00,3,,1
2013-1-16,35,32,29,27,25,22,84,76,66,30.14,30.10,30.03,10,10,10,10,5,,0.00,4,,235
2013-1-17,41,34,27,33,28,21,93,76,59,30.50,30.28,30.12,10,10,5,17,5,24,0.00,3,,320
2013-1-18,41,32,22,29,25,20,94,71,54,30.53,30.40,30.19,10,10,10,24,7,30,0.00,0,,169
2013-1-19,55,47,39,38,32,26,72,58,44,30.20,30.06,29.94,10,10,10,25,17,33,0.00,0,,197
2013-1-20,44,36,27,34,18,11,73,56,41,30.34,30.26,30.06,10,10,10,17,11,24,0.00,2,,311
2013-1-21,26,20,14,19,7,-2,75,57,40,30.37,30.30,30.23,10,10,5,23,13,30,0.00,3,Snow,283
2013-1-22,20,14,9,5,0,-3,68,52,37,30.47,30.41,30.37,10,10,10,13,8,17,0.00,2,,272
2013-1-23,36,25,14,22,13,5,75,58,41,30.40,30.27,30.14,10,10,10,23,4,30,0.00,3,,213
2013-1-24,30,22,15,12,6,0,69,49,29,30.64,30.49,30.31,10,10,10,20,12,29,0.00,0,,32
2013-1-25,36,31,26,23,16,3,77,58,36,30.35,30.17,30.10,10,10,7,14,8,16,0.00,5,,198
2013-1-26,36,28,20,22,17,14,82,64,43,30.41,30.35,30.21,10,10,10,12,5,,0.00,0,,346
2013-1-27,44,34,24,43,29,18,96,81,65,30.39,30.25,30.06,10,7,3,15,8,21,0.12,5,Rain-Snow,116
2013-1-28,58,52,45,57,51,43,97,92,84,30.09,30.02,29.98,10,6,1,17,12,22,0.33,7,Rain,171
2013-1-29,66,60,55,60,57,53,94,85,76,29.97,29.75,29.38,10,8,5,32,16,43,0.09,6,Rain,161
2013-1-30,56,43,30,53,41,19,97,84,62,29.83,29.52,29.37,10,9,3,32,13,40,0.67,8,Rain-Snow,234
2013-1-31,33,23,13,26,16,0,90,66,57,30.31,30.03,29.85,10,9,1,31,21,37,0.00,7,Snow,260